• Join FlightAware (Why Join?)
  • Login
  • US Flag 
06:02PM EST


 

Airport Tracker/Info


-or-


 

Live Flight TrackerFlight Track Log ✈ UAL3776 ✈ 12-Apr-2013 ✈ KIAD - KRDU

Flight Track Log - Related Links

Times and Time Zones

All times are in EDT time to prevent confusion due to time zone crossing. See the UAL3776 flight status page for this flight to view local times or setup timezone preferences in your user account.

Time Position Orientation Groundspeed Altitude Reporting Facility
EDT Latitude Longitude Course Direction KTS MPH feet Rate Location/Type
03:52PM 38.9000 -77.5167 226° Southwest 194 223 2,900  Level Potomac TRACON
03:53PM 38.8167 -77.5167 180° South 266 306 5,600 3,000 Climbing Potomac TRACON
03:54PM 38.7500 -77.5333 191° South 259 298 8,900 2,678 Climbing Potomac TRACON
03:55PM 38.4660 -77.6760 185° South  Level Estimated
03:55PM 38.6833 -77.5667 201° Southwest 283 326 11,000  Level Potomac TRACON
03:56PM 38.3696 -77.7188 218° Southwest  Level Estimated
03:56PM 38.6167 -77.6333 218° Southwest 314 361 12,800  Level Potomac TRACON
03:57PM 38.2732 -77.7616 226° Southwest  Level Estimated
03:57PM 38.5789 -77.6578 207° Southwest 323 372 14,600  Level Washington Center
03:58PM 38.5025 -77.7300 217° Southwest 312 359 16,900 2,150 Climbing Washington Center
03:59PM 38.4367 -77.7917 216° Southwest 318 366 18,900 2,000 Climbing Washington Center
04:00PM 38.3500 -77.8606 212° Southwest 342 394 20,900 1,550 Climbing Washington Center
04:01PM 38.2717 -77.9164 209° Southwest 347 399 22,000 550 Climbing Washington Center
04:02PM 38.1642 -77.9764 204° Southwest 377 434 22,000  Level Washington Center
04:03PM 38.0756 -78.0344 207° Southwest 396 456 22,000  Level Washington Center
04:04PM 37.9756 -78.1181 213° Southwest 396 456 22,000  Level Washington Center
04:05PM 37.9033 -78.1842 216° Southwest 381 438 22,000  Level Washington Center
04:06PM 37.8103 -78.2467 208° Southwest 375 432 22,000  Level Washington Center
04:07PM 37.7086 -78.3164 208° Southwest 375 432 22,000  Level Washington Center
04:08PM 37.6175 -78.3761 207° Southwest 375 432 22,000  Level Washington Center
04:09PM 37.5261 -78.4408 209° Southwest 380 437 22,000  Level Washington Center
04:10PM 37.4308 -78.5028 207° Southwest 380 437 22,000  Level Washington Center
04:11PM 37.3397 -78.5644 208° Southwest 380 437 22,000  Level Washington Center
04:12PM 37.2569 -78.6214 209° Southwest 380 437 22,000 -100 Level Washington Center
04:13PM 37.1614 -78.6881 209° Southwest 380 437 21,800 -600 Descending Washington Center
04:14PM 37.0722 -78.7469 208° Southwest 380 437 20,800 -1,000 Descending Washington Center
04:15PM 36.9808 -78.8056 207° Southwest 380 437 19,800 -900 Descending Washington Center
04:16PM 36.8811 -78.8742 209° Southwest 380 437 19,000 -450 Descending Washington Center
04:17PM 36.7958 -78.9328 209° Southwest 380 437 18,900 -923 Descending Washington Center
04:18PM 36.7022 -78.9961 208° Southwest 319 367 17,000 -1,250 Descending Washington Center
04:19PM 36.6331 -79.0111 190° South 306 352 16,400 -1,595 Descending Washington Center
04:19PM 36.5917 -78.9964 164° South 332 382 14,900 -3,100 Descending Washington Center
04:20PM 36.5464 -78.9814 165° South 300 345 13,300 -2,951 Descending Washington Center
04:20PM 36.4986 -78.9664 166° South 323 372 11,900 -2,700 Descending Washington Center
04:21PM 36.4614 -78.9544 166° South 310 357 10,600 -1,900 Descending Washington Center
04:21PM 36.4158 -78.9422 168° South 301 346 10,000 -600 Descending Washington Center
04:22PM 36.3892 -78.9256 153° Southeast 310 357 10,000 -590 Level Washington Center
04:22PM 36.3464 -78.8878 145° Southeast 290 334 9,400 -1,300 Descending Washington Center
04:23PM 36.3181 -78.8633 145° Southeast 295 339 8,700 -1,377 Descending Washington Center
04:23PM 36.2833 -78.8336 145° Southeast 274 315 8,000 -700 Descending Washington Center
04:24PM 36.2608 -78.8119 142° Southeast 283 326 8,000  Level Washington Center
04:24PM 36.2264 -78.7797 143° Southeast 254 292 8,000 -500 Level Washington Center
04:25PM 36.2058 -78.7608 143° Southeast 263 303 7,500 -1,475 Descending Washington Center
04:25PM 36.1714 -78.7311 145° Southeast 239 275 6,500 -1,700 Descending Washington Center
04:26PM 36.1467 -78.7094 145° Southeast 248 285 5,800 -1,377 Descending Washington Center
04:26PM 36.1161 -78.6853 147° Southeast 236 272 5,100 -1,000 Descending Washington Center
04:27PM 36.0936 -78.6636 142° Southeast 238 274 4,800 -900 Descending Washington Center
04:27PM 36.0650 -78.6422 149° Southeast 234 269 4,200 -800 Descending Washington Center
04:28PM 36.0406 -78.6258 152° Southeast 232 267 4,000 -295 Descending Washington Center
04:28PM 36.0108 -78.6375 198° South 207 238 3,900 -1,069 Descending Washington Center
04:29PM 35.9614 -78.6944 223° Southwest 201 231 2,200 -1,190 Descending Washington Center
04:30PM 35.9356 -78.7294 228° Southwest 145 167 1,500 -672 Descending Washington Center
04:31PM 35.9075 -78.7592 221° Southwest 118 136 900 -590 Descending Washington Center
04:33PM 35.8776 -78.7875 219° Southwest  Level Estimated
04:40PM 35.8776 -78.7875 219° Southwest  Level Estimated
04:41PM 35.8776 -78.7875 219° Southwest  Level Estimated
04:42PM 35.8776 -78.7875 219° Southwest  Level Estimated